createdAt,value
2019-05-15T00:01:10.418Z,3.09
2019-05-15T00:06:19.060Z,3.36
2019-05-15T00:11:24.857Z,3.25
2019-05-15T00:16:32.282Z,3.30
2019-05-15T00:21:39.670Z,2.98
2019-05-15T00:26:48.102Z,3.19
2019-05-15T00:31:53.992Z,3.16
2019-05-15T00:37:01.467Z,3.21
2019-05-15T00:42:08.926Z,3.15
2019-05-15T00:47:18.129Z,3.03
2019-05-15T00:52:23.399Z,3.14
2019-05-15T00:57:31.832Z,3.23
2019-05-15T01:02:39.175Z,3.25
2019-05-15T01:07:47.979Z,3.25
2019-05-15T01:12:53.543Z,3.19
2019-05-15T01:18:01.088Z,3.52
2019-05-15T01:23:09.127Z,3.38
2019-05-15T01:28:18.163Z,3.14
2019-05-15T01:33:23.177Z,3.34
2019-05-15T01:38:30.538Z,3.16
2019-05-15T01:43:38.161Z,3.03
2019-05-15T01:48:45.348Z,3.22
2019-05-15T01:53:52.833Z,3.21
2019-05-15T01:59:00.159Z,3.30
2019-05-15T02:04:08.354Z,3.41
2019-05-15T02:09:14.651Z,3.31
2019-05-15T02:14:22.103Z,3.45
2019-05-15T02:19:29.527Z,3.24
2019-05-15T02:24:38.994Z,3.60
2019-05-15T02:29:43.948Z,3.85
2019-05-15T02:34:51.381Z,4.10
2019-05-15T02:39:59.036Z,4.18
2019-05-15T02:45:09.578Z,4.24
2019-05-15T02:50:13.150Z,3.99
2019-05-15T02:55:20.605Z,4.42
2019-05-15T03:00:38.073Z,3.75
2019-05-15T03:05:35.117Z,3.97
2019-05-15T03:10:42.576Z,3.96
2019-05-15T03:15:49.974Z,3.66
2019-05-15T03:21:00.393Z,4.05
2019-05-15T03:26:04.599Z,3.68
2019-05-15T03:31:32.646Z,3.76
2019-05-15T03:36:23.082Z,3.71
2019-05-15T03:41:25.961Z,3.85
2019-05-15T03:46:33.350Z,4.13
2019-05-15T03:51:45.461Z,4.03
2019-05-15T03:56:49.845Z,4.21
2019-05-15T04:01:54.769Z,4.09
2019-05-15T04:07:02.145Z,4.20
2019-05-15T04:12:09.635Z,3.93
2019-05-15T04:17:19.807Z,3.93
2019-05-15T04:22:24.000Z,3.99
2019-05-15T04:27:31.442Z,4.02
2019-05-15T04:32:39.918Z,4.12
2019-05-15T04:37:49.081Z,4.51
2019-05-15T04:42:52.871Z,4.63
2019-05-15T04:48:00.241Z,3.91
2019-05-15T04:53:10.605Z,4.22
2019-05-15T04:58:14.586Z,4.05
2019-05-15T05:03:22.008Z,4.03
2019-05-15T05:08:29.369Z,4.26
2019-05-15T05:13:39.160Z,4.22
2019-05-15T05:18:43.828Z,4.39
2019-05-15T05:23:51.275Z,4.65
2019-05-15T05:29:01.321Z,4.90
2019-05-15T05:34:05.677Z,5.14
2019-05-15T05:39:15.319Z,5.51
2019-05-15T05:44:20.087Z,5.58
2019-05-15T05:49:28.816Z,9.20
2019-05-15T05:54:34.538Z,6.13
2019-05-15T05:59:41.967Z,5.90
2019-05-15T06:04:49.356Z,5.64
2019-05-15T06:09:58.142Z,4.98
2019-05-15T06:15:08.788Z,3.94
2019-05-15T06:20:03.765Z,3.17
2019-05-15T06:25:11.890Z,2.69
2019-05-15T06:30:21.983Z,2.14
2019-05-15T06:35:25.256Z,1.93
2019-05-15T06:40:32.733Z,2.34
2019-05-15T06:45:40.271Z,1.95
2019-05-15T06:50:48.907Z,2.02
2019-05-15T06:55:54.842Z,1.96
2019-05-15T07:01:02.227Z,1.78
2019-05-15T07:06:09.789Z,1.98
2019-05-15T07:11:19.062Z,1.83
2019-05-15T07:16:24.061Z,1.69
2019-05-15T07:21:31.435Z,1.48
2019-05-15T07:26:39.161Z,1.79
2019-05-15T07:31:47.715Z,1.59
2019-05-15T07:36:52.855Z,1.86
2019-05-15T07:42:00.279Z,1.84
2019-05-15T07:47:08.893Z,1.58
2019-05-15T07:52:14.656Z,1.72
2019-05-15T07:57:22.182Z,1.72
2019-05-15T08:02:29.634Z,1.75
2019-05-15T08:07:38.872Z,1.83
2019-05-15T08:12:43.943Z,1.64
2019-05-15T08:18:03.318Z,1.81
2019-05-15T08:22:58.386Z,1.88
2019-05-15T08:28:08.349Z,1.93
2019-05-15T08:33:12.828Z,1.99
2019-05-15T08:38:20.195Z,1.82
2019-05-15T08:43:29.111Z,1.89
2019-05-15T08:48:34.601Z,2.10
2019-05-15T08:53:42.063Z,1.78
2019-05-15T08:58:49.448Z,1.86
2019-05-15T09:03:58.186Z,1.50
2019-05-15T09:09:03.762Z,1.47
2019-05-15T09:14:11.180Z,1.61
2019-05-15T09:19:18.624Z,1.49
2019-05-15T09:24:28.417Z,1.44
2019-05-15T09:29:33.030Z,1.82
2019-05-15T09:34:50.878Z,1.37
2019-05-15T09:39:48.968Z,1.37
2019-05-15T09:44:54.474Z,1.37
2019-05-15T09:50:01.929Z,1.38
2019-05-15T09:55:10.708Z,1.39
2019-05-15T10:00:18.932Z,1.55
2019-05-15T10:05:25.117Z,1.40
2019-05-15T10:10:32.586Z,1.69
2019-05-15T10:15:39.963Z,1.65
2019-05-15T10:20:47.406Z,1.71
2019-05-15T10:25:54.812Z,1.70
2019-05-15T10:31:02.250Z,1.90
2019-05-15T10:36:09.666Z,1.98
2019-05-15T10:41:18.754Z,1.69
2019-05-15T10:46:24.074Z,2.02
2019-05-15T10:51:31.534Z,1.73
2019-05-15T10:56:38.900Z,1.80
2019-05-15T11:01:48.799Z,1.92
2019-05-15T11:06:53.501Z,1.72
2019-05-15T11:12:01.090Z,1.69
2019-05-15T11:17:08.525Z,1.88
2019-05-15T11:22:18.210Z,1.72
2019-05-15T11:27:22.869Z,1.52
2019-05-15T11:32:30.378Z,1.58
2019-05-15T11:37:44.774Z,1.49
2019-05-15T11:42:44.840Z,1.20
2019-05-15T11:47:52.309Z,1.37
2019-05-15T11:52:59.796Z,1.36
2019-05-15T11:58:09.296Z,1.58
2019-05-15T12:03:14.271Z,1.34
2019-05-15T12:08:21.691Z,1.64
2019-05-15T12:13:29.185Z,1.46
2019-05-15T12:18:38.844Z,1.73
2019-05-15T12:23:43.588Z,2.57
2019-05-15T12:28:51.032Z,1.72
2019-05-15T12:33:58.634Z,1.68
2019-05-15T12:39:10.672Z,1.73
2019-05-15T12:59:44.706Z,1.77
2019-05-15T13:04:39.586Z,1.51
2019-05-15T13:09:48.691Z,1.80
2019-05-15T13:14:53.963Z,1.65
2019-05-15T13:20:04.373Z,1.52
2019-05-15T13:25:04.666Z,1.96
2019-05-15T13:30:05.168Z,1.79
2019-05-15T13:35:02.635Z,2.02
2019-05-15T13:40:10.104Z,1.71
2019-05-15T13:45:20.477Z,1.77
2019-05-15T13:50:19.517Z,1.69
2019-05-15T13:55:35.228Z,2.14
2019-05-15T14:00:34.763Z,2.35
2019-05-15T14:05:45.287Z,2.08
2019-05-15T14:10:45.577Z,2.44
2019-05-15T14:15:43.061Z,1.90
2019-05-15T14:20:53.445Z,2.51
2019-05-15T14:25:53.698Z,1.80
2019-05-15T14:30:54.176Z,1.82
2019-05-15T14:35:51.571Z,1.67
2019-05-15T14:40:59.237Z,1.75
2019-05-15T14:46:09.435Z,1.98
2019-05-15T14:51:09.725Z,2.74
2019-05-15T14:56:10.154Z,1.86
2019-05-15T15:01:12.160Z,1.73
2019-05-15T15:06:18.214Z,1.57
2019-05-15T15:11:24.405Z,1.42
2019-05-15T15:16:31.930Z,1.59
2019-05-15T15:21:42.278Z,1.66
2019-05-15T15:26:42.644Z,1.84
2019-05-15T15:31:40.065Z,1.77
2019-05-15T15:36:50.562Z,1.58
2019-05-15T15:41:48.600Z,1.77
2019-05-15T15:46:55.034Z,1.68
2019-05-15T15:52:02.623Z,1.38
2019-05-15T15:57:13.052Z,1.48
2019-05-15T16:02:13.341Z,1.40
2019-05-15T16:07:10.771Z,1.72
2019-05-15T16:12:18.591Z,1.58
2019-05-15T16:17:25.224Z,1.34
2019-05-15T16:22:32.638Z,1.60
2019-05-15T16:27:40.115Z,1.60
2019-05-15T16:32:50.407Z,1.22
2019-05-15T16:37:50.739Z,1.41
2019-05-15T16:42:51.064Z,1.95
2019-05-15T16:47:51.498Z,1.68
2019-05-15T16:52:52.116Z,1.68
2019-05-15T16:57:52.704Z,1.84
2019-05-15T17:03:08.233Z,1.95
2019-05-15T17:08:01.760Z,2.05
2019-05-15T17:13:02.149Z,1.48
2019-05-15T17:18:00.245Z,1.34
2019-05-15T17:23:10.662Z,1.60
2019-05-15T17:28:11.510Z,1.69
2019-05-15T17:33:09.016Z,1.66
2019-05-15T17:38:19.469Z,1.77
2019-05-15T17:43:18.342Z,1.71
2019-05-15T17:48:28.936Z,1.88
2019-05-15T17:53:28.796Z,1.65
2019-05-15T17:58:34.338Z,1.86
2019-05-15T18:03:41.848Z,1.68
2019-05-15T18:08:49.353Z,1.74
2019-05-15T18:13:58.304Z,1.70
2019-05-15T18:19:03.790Z,1.92
2019-05-15T18:24:11.426Z,1.92
2019-05-15T18:29:18.916Z,1.92
2019-05-15T18:34:28.619Z,1.75
2019-05-15T18:39:33.312Z,1.74
2019-05-15T18:44:40.945Z,1.72
2019-05-15T18:50:03.745Z,1.89
2019-05-15T18:54:55.424Z,1.91
2019-05-15T19:00:02.940Z,1.89
2019-05-15T19:05:10.429Z,1.90
2019-05-15T19:10:18.687Z,2.18
2019-05-15T19:15:25.203Z,1.93
2019-05-15T19:20:32.654Z,2.07
2019-05-15T19:25:40.264Z,2.14
2019-05-15T19:30:48.075Z,2.13
2019-05-15T19:35:54.789Z,2.10
2019-05-15T19:41:03.825Z,1.79
2019-05-15T19:46:09.410Z,2.16
2019-05-15T19:51:18.275Z,1.94
2019-05-15T19:56:23.889Z,2.01
2019-05-15T20:01:31.357Z,2.07
2019-05-15T20:06:38.905Z,1.92
2019-05-15T20:11:47.864Z,2.02
2019-05-15T20:16:53.591Z,2.04
2019-05-15T20:22:01.093Z,1.82
2019-05-15T20:27:08.739Z,2.07
2019-05-15T20:32:18.453Z,2.32
2019-05-15T20:37:28.664Z,2.27
2019-05-15T20:42:33.496Z,1.98
2019-05-15T20:47:40.974Z,2.17
2019-05-15T20:52:49.157Z,2.11
2019-05-15T20:57:55.797Z,1.98
2019-05-15T21:03:03.184Z,2.15
2019-05-15T21:08:10.629Z,2.36
2019-05-15T21:13:18.197Z,2.03
2019-05-15T21:18:25.769Z,2.16
2019-05-15T21:23:33.255Z,2.12
2019-05-15T21:28:40.707Z,2.27
2019-05-15T21:33:48.511Z,2.32
2019-05-15T21:38:55.158Z,2.17
2019-05-15T21:44:02.656Z,2.80
2019-05-15T21:49:10.104Z,2.53
2019-05-15T21:54:17.978Z,2.70
2019-05-15T21:59:24.639Z,2.47
2019-05-15T22:04:32.175Z,2.50
2019-05-15T22:09:39.708Z,2.31
2019-05-15T22:14:49.192Z,2.12
2019-05-15T22:19:54.251Z,2.27
2019-05-15T22:25:01.725Z,2.70
2019-05-15T22:30:09.308Z,2.75
2019-05-15T22:35:18.776Z,3.49
2019-05-15T22:40:24.393Z,3.23
2019-05-15T22:45:31.785Z,3.34
2019-05-15T22:50:39.396Z,2.99
2019-05-15T22:55:48.423Z,3.04
2019-05-15T23:00:54.075Z,3.06
2019-05-15T23:06:01.527Z,3.04
2019-05-15T23:11:09.620Z,2.96
2019-05-15T23:16:18.185Z,3.05
2019-05-15T23:21:23.168Z,2.86
2019-05-15T23:26:30.833Z,2.83
2019-05-15T23:31:38.406Z,2.87
2019-05-15T23:36:45.831Z,2.79
2019-05-15T23:41:53.355Z,2.86
2019-05-15T23:47:00.947Z,2.66
2019-05-15T23:52:08.896Z,2.82
2019-05-15T23:57:17.815Z,2.98
